createdAt,value
2022-08-18T00:01:18.899Z,22.01
2022-08-18T00:03:57.081Z,21.97
2022-08-18T00:06:45.488Z,21.92
2022-08-18T00:09:12.636Z,21.83
2022-08-18T00:11:42.275Z,21.81
2022-08-18T00:14:13.869Z,21.77
2022-08-18T00:17:01.487Z,21.74
2022-08-18T00:19:45.962Z,21.71
2022-08-18T00:22:23.513Z,21.67
2022-08-18T00:24:56.256Z,21.66
2022-08-18T00:27:33.513Z,21.64
2022-08-18T00:30:06.872Z,21.63
2022-08-18T00:33:01.496Z,21.61
2022-08-18T00:36:05.330Z,21.57
2022-08-18T00:39:09.385Z,21.49
2022-08-18T00:42:13.231Z,21.43
2022-08-18T00:45:33.093Z,21.41
2022-08-18T00:48:37.062Z,21.34
2022-08-18T00:51:40.943Z,21.37
2022-08-18T00:54:45.058Z,21.35
2022-08-18T00:57:48.670Z,21.32
2022-08-18T01:00:54.917Z,21.30
2022-08-18T01:03:58.598Z,21.26
2022-08-18T01:06:58.547Z,21.25
2022-08-18T01:09:25.092Z,21.23
2022-08-18T01:11:51.618Z,21.17
2022-08-18T01:14:19.475Z,21.16
2022-08-18T01:17:08.585Z,21.11
2022-08-18T01:19:54.266Z,21.05
2022-08-18T01:22:54.531Z,21.01
2022-08-18T01:25:40.857Z,20.98
2022-08-18T01:28:16.536Z,20.92
2022-08-18T01:30:51.995Z,20.92
2022-08-18T01:33:30.020Z,20.90
2022-08-18T01:36:04.269Z,20.88
2022-08-18T01:38:40.573Z,20.86
2022-08-18T01:41:28.666Z,20.80
2022-08-18T01:43:54.098Z,20.78
2022-08-18T01:46:21.614Z,20.78
2022-08-18T01:48:48.925Z,20.72
2022-08-18T01:51:18.026Z,20.71
2022-08-18T01:53:45.034Z,20.67
2022-08-18T01:56:13.038Z,20.68
2022-08-18T01:58:45.573Z,20.66
2022-08-18T02:01:13.241Z,20.66
2022-08-18T02:03:44.971Z,20.65
2022-08-18T02:06:19.199Z,20.65
2022-08-18T02:09:01.583Z,20.62
2022-08-18T02:11:28.046Z,20.60
2022-08-18T02:13:54.560Z,20.59
2022-08-18T02:16:21.059Z,20.59
2022-08-18T02:18:48.960Z,20.54
2022-08-18T02:21:19.556Z,20.58
2022-08-18T02:23:54.188Z,20.60
2022-08-18T02:26:24.037Z,20.59
2022-08-18T02:28:58.580Z,20.54
2022-08-18T02:31:25.817Z,20.51
2022-08-18T02:33:52.846Z,20.49
2022-08-18T02:36:20.396Z,20.50
2022-08-18T02:38:59.443Z,20.62
2022-08-18T02:41:29.908Z,20.57
2022-08-18T02:43:57.657Z,20.47
2022-08-18T02:46:25.017Z,20.45
2022-08-18T02:49:03.612Z,20.41
2022-08-18T02:51:34.918Z,20.39
2022-08-18T02:54:01.735Z,20.39
2022-08-18T02:56:40.478Z,20.37
2022-08-18T02:59:09.877Z,20.33
2022-08-18T03:01:44.900Z,20.29
2022-08-18T03:04:15.631Z,20.30
2022-08-18T03:06:49.462Z,20.28
2022-08-18T03:09:17.988Z,20.24
2022-08-18T03:11:45.167Z,20.23
2022-08-18T03:14:12.414Z,20.19
2022-08-18T03:16:53.249Z,20.20
2022-08-18T03:19:28.401Z,20.21
2022-08-18T03:21:58.176Z,20.16
2022-08-18T03:24:27.232Z,20.16
2022-08-18T03:26:59.586Z,20.12
2022-08-18T03:29:32.475Z,20.11
2022-08-18T03:32:01.488Z,20.12
2022-08-18T03:34:30.486Z,20.09
2022-08-18T03:36:57.171Z,20.09
2022-08-18T03:39:30.683Z,20.08
2022-08-18T03:42:01.048Z,20.05
2022-08-18T03:44:33.851Z,20.01
2022-08-18T03:47:03.053Z,20.01
2022-08-18T03:49:31.156Z,19.92
2022-08-18T03:52:00.769Z,19.83
2022-08-18T03:54:28.250Z,19.77
2022-08-18T03:56:55.983Z,19.70
2022-08-18T03:59:31.642Z,19.63
2022-08-18T04:01:58.148Z,19.53
2022-08-18T04:04:44.675Z,19.48
2022-08-18T04:07:17.357Z,19.45
2022-08-18T04:09:53.692Z,19.39
2022-08-18T04:12:20.161Z,19.34
2022-08-18T04:14:50.039Z,19.27
2022-08-18T04:17:24.283Z,19.24
2022-08-18T04:19:55.556Z,19.24
2022-08-18T04:22:23.058Z,19.21
2022-08-18T04:24:50.248Z,19.23
2022-08-18T04:27:24.123Z,19.19
2022-08-18T04:29:51.022Z,19.16
2022-08-18T04:32:17.519Z,19.13
2022-08-18T04:34:46.621Z,19.12
2022-08-18T04:37:19.574Z,19.08
2022-08-18T04:39:46.573Z,19.12
2022-08-18T04:42:16.199Z,19.13
2022-08-18T04:44:43.215Z,19.15
2022-08-18T04:47:10.121Z,19.12
2022-08-18T04:49:39.153Z,19.12
2022-08-18T04:52:39.740Z,19.09
2022-08-18T04:55:07.956Z,19.15
2022-08-18T04:57:34.811Z,19.11
2022-08-18T05:00:01.811Z,19.08
2022-08-18T05:02:28.548Z,19.09
2022-08-18T05:05:15.694Z,19.07
2022-08-18T05:07:46.476Z,19.12
2022-08-18T05:10:17.644Z,19.11
2022-08-18T05:12:48.735Z,19.12
2022-08-18T05:15:15.231Z,19.08
2022-08-18T05:17:41.762Z,19.09
2022-08-18T05:20:15.742Z,19.13
2022-08-18T05:22:45.384Z,19.14
2022-08-18T05:25:12.645Z,19.12
2022-08-18T05:27:43.571Z,19.09
2022-08-18T05:30:11.393Z,19.15
2022-08-18T05:32:48.583Z,19.10
2022-08-18T05:35:25.120Z,19.16
2022-08-18T05:37:57.236Z,19.17
2022-08-18T05:40:26.429Z,19.19
2022-08-18T05:42:57.350Z,19.19
2022-08-18T05:45:30.737Z,19.24
2022-08-18T05:48:02.654Z,19.32
2022-08-18T05:50:38.737Z,19.41
2022-08-18T05:53:14.609Z,19.41
2022-08-18T05:56:09.754Z,19.44
2022-08-18T06:06:24.756Z,19.45
2022-08-18T06:09:11.153Z,19.53
2022-08-18T06:11:37.655Z,19.57
2022-08-18T06:14:04.933Z,19.61
2022-08-18T06:16:48.756Z,19.60
2022-08-18T06:19:26.968Z,19.65
2022-08-18T06:22:11.245Z,19.69
2022-08-18T06:24:52.106Z,19.66
2022-08-18T06:27:39.889Z,19.59
2022-08-18T06:30:19.429Z,19.69
2022-08-18T06:33:02.379Z,19.73
2022-08-18T06:36:13.104Z,19.81
2022-08-18T06:39:16.844Z,19.76
2022-08-18T06:41:48.818Z,19.86
2022-08-18T06:44:23.579Z,19.87
2022-08-18T06:46:59.392Z,19.88
2022-08-18T06:49:51.670Z,19.83
2022-08-18T06:52:37.580Z,19.81
2022-08-18T06:55:12.905Z,19.77
2022-08-18T06:57:54.743Z,19.75
2022-08-18T07:00:32.381Z,19.71
2022-08-18T07:03:18.037Z,19.71
2022-08-18T07:06:11.549Z,19.71
2022-08-18T07:08:45.715Z,19.70
2022-08-18T07:11:24.262Z,19.75
2022-08-18T07:14:09.482Z,19.77
2022-08-18T07:16:57.957Z,19.71
2022-08-18T07:19:30.550Z,19.72
2022-08-18T07:22:02.236Z,19.68
2022-08-18T07:24:38.612Z,19.60
2022-08-18T07:27:07.927Z,19.72
2022-08-18T07:29:40.167Z,19.79
2022-08-18T07:32:21.479Z,19.84
2022-08-18T07:34:58.081Z,19.86
2022-08-18T07:37:44.803Z,19.93
2022-08-18T07:40:29.193Z,19.96
2022-08-18T07:43:03.251Z,19.99
2022-08-18T07:45:41.057Z,20.06
2022-08-18T07:48:37.211Z,20.09
2022-08-18T07:51:18.579Z,20.12
2022-08-18T07:53:55.671Z,20.18
2022-08-18T07:56:46.673Z,20.16
2022-08-18T07:59:25.290Z,20.16
2022-08-18T08:01:54.724Z,20.23
2022-08-18T08:04:38.435Z,20.25
2022-08-18T08:07:25.409Z,20.29
2022-08-18T08:10:21.276Z,20.29
2022-08-18T08:13:43.839Z,20.32
2022-08-18T08:16:25.501Z,20.34
2022-08-18T08:19:02.438Z,20.38
2022-08-18T08:21:52.942Z,20.37
2022-08-18T08:24:30.111Z,20.37
2022-08-18T08:27:02.580Z,20.41
2022-08-18T08:29:31.905Z,20.43
2022-08-18T08:32:02.180Z,20.39
2022-08-18T08:34:43.880Z,20.44
2022-08-18T08:37:17.293Z,20.39
2022-08-18T08:40:18.859Z,20.37
2022-08-18T08:42:56.893Z,20.37
2022-08-18T08:45:37.765Z,20.34
2022-08-18T08:48:20.859Z,20.33
2022-08-18T08:50:53.117Z,20.27
2022-08-18T08:53:27.727Z,20.21
2022-08-18T08:56:02.402Z,20.11
2022-08-18T08:58:56.318Z,20.04
2022-08-18T09:01:43.616Z,20.04
2022-08-18T09:04:34.022Z,20.01
2022-08-18T09:07:10.147Z,20.00
2022-08-18T09:09:54.733Z,19.96
2022-08-18T09:12:58.900Z,19.95
2022-08-18T09:15:38.099Z,20.01
2022-08-18T09:18:46.762Z,20.06
2022-08-18T09:21:28.228Z,20.07
2022-08-18T09:24:13.880Z,20.08
2022-08-18T09:26:47.059Z,20.15
2022-08-18T09:29:17.676Z,20.10
2022-08-18T09:31:46.052Z,20.12
2022-08-18T09:34:27.949Z,20.22
2022-08-18T09:37:03.308Z,20.16
2022-08-18T09:40:38.724Z,20.22
2022-08-18T09:43:27.148Z,20.36
2022-08-18T09:45:59.637Z,20.58
2022-08-18T09:48:29.353Z,20.69
2022-08-18T09:51:01.588Z,20.91
2022-08-18T09:53:38.248Z,20.86
2022-08-18T09:56:09.089Z,21.06
2022-08-18T09:58:51.083Z,21.27
2022-08-18T10:01:30.257Z,21.34
2022-08-18T10:04:15.045Z,21.49
2022-08-18T10:06:48.433Z,21.58
2022-08-18T10:12:41.959Z,21.67
2022-08-18T10:15:32.843Z,21.79
2022-08-18T10:18:07.556Z,21.81
2022-08-18T10:20:58.661Z,21.98
2022-08-18T10:27:15.294Z,21.71
2022-08-18T10:29:51.701Z,21.62
2022-08-18T10:32:24.870Z,21.57
2022-08-18T10:34:53.832Z,21.49
2022-08-18T10:37:44.616Z,21.45
2022-08-18T10:40:21.162Z,21.40
2022-08-18T10:42:59.304Z,21.39
2022-08-18T10:45:30.644Z,21.38
2022-08-18T10:48:30.230Z,21.36
2022-08-18T10:51:22.923Z,21.40
2022-08-18T10:54:08.495Z,21.46
2022-08-18T10:56:52.362Z,21.57
2022-08-18T10:59:32.221Z,21.57
2022-08-18T11:02:31.053Z,21.61
2022-08-18T11:05:06.749Z,21.64
2022-08-18T11:07:46.784Z,21.78
2022-08-18T11:10:31.920Z,21.79
2022-08-18T11:13:24.792Z,21.88
2022-08-18T11:16:35.169Z,21.93
2022-08-18T11:19:24.009Z,22.06
2022-08-18T11:21:53.234Z,22.02
2022-08-18T11:24:24.992Z,22.09
2022-08-18T11:27:24.028Z,22.06
2022-08-18T11:29:54.458Z,22.08
2022-08-18T11:32:27.437Z,22.23
2022-08-18T11:35:11.108Z,22.27
2022-08-18T11:37:49.195Z,22.34
2022-08-18T11:43:29.680Z,22.53
2022-08-18T11:46:39.926Z,22.58
2022-08-18T11:49:45.338Z,22.70
2022-08-18T11:52:36.023Z,22.69
2022-08-18T11:55:16.510Z,22.75
2022-08-18T11:57:59.020Z,22.77
2022-08-18T12:00:42.621Z,22.94
2022-08-18T12:03:32.203Z,22.92
2022-08-18T12:06:27.080Z,22.94
2022-08-18T12:09:03.095Z,22.97
2022-08-18T12:11:33.034Z,22.99
2022-08-18T12:14:31.271Z,23.06
2022-08-18T12:17:00.123Z,23.17
2022-08-18T12:19:34.460Z,23.28
2022-08-18T12:22:03.906Z,23.46
2022-08-18T12:24:40.091Z,23.65
2022-08-18T12:27:21.475Z,23.90
2022-08-18T12:29:55.312Z,23.91
2022-08-18T12:32:41.368Z,23.92
2022-08-18T12:35:15.351Z,24.01
2022-08-18T12:38:11.148Z,24.19
2022-08-18T12:40:33.607Z,24.25
2022-08-18T12:43:00.080Z,24.28
2022-08-18T12:45:27.906Z,24.43
2022-08-18T12:48:09.070Z,24.52
2022-08-18T12:50:49.685Z,24.66
2022-08-18T12:53:30.655Z,24.86
2022-08-18T12:56:46.237Z,24.96
2022-08-18T12:59:19.071Z,25.14
2022-08-18T13:01:46.042Z,25.08
2022-08-18T13:04:14.079Z,25.22
2022-08-18T13:06:59.565Z,25.31
2022-08-18T13:09:53.495Z,25.58
2022-08-18T13:12:22.011Z,25.34
2022-08-18T13:14:51.226Z,25.27
2022-08-18T13:17:29.136Z,25.28
2022-08-18T13:20:06.078Z,25.33
2022-08-18T13:22:33.367Z,25.50
2022-08-18T13:25:08.097Z,25.44
2022-08-18T13:27:37.241Z,25.45
2022-08-18T13:30:31.226Z,25.35
2022-08-18T13:33:05.712Z,25.33
2022-08-18T13:35:55.134Z,25.47
2022-08-18T13:38:27.875Z,25.55
2022-08-18T13:41:06.280Z,25.51
2022-08-18T13:43:42.006Z,25.63
2022-08-18T13:46:13.261Z,25.66
2022-08-18T13:48:43.292Z,25.76
2022-08-18T13:51:17.503Z,25.75
2022-08-18T13:53:57.790Z,25.90
2022-08-18T13:56:35.162Z,25.80
2022-08-18T13:59:04.815Z,25.82
2022-08-18T14:01:45.302Z,25.90
2022-08-18T14:04:20.742Z,25.85
2022-08-18T14:07:11.833Z,25.79
2022-08-18T14:09:44.985Z,25.80
2022-08-18T14:12:33.446Z,25.81
2022-08-18T14:15:00.097Z,25.86
2022-08-18T14:17:27.229Z,25.88
2022-08-18T14:20:22.393Z,25.86
2022-08-18T14:23:23.532Z,25.92
2022-08-18T14:26:17.163Z,25.94
2022-08-18T14:28:47.548Z,25.91
2022-08-18T14:31:14.690Z,25.92
2022-08-18T14:33:50.880Z,25.89
2022-08-18T14:36:19.953Z,25.91
2022-08-18T14:38:46.405Z,26.01
2022-08-18T14:41:19.089Z,25.98
2022-08-18T14:43:50.822Z,25.91
2022-08-18T14:46:34.766Z,25.83
2022-08-18T14:49:04.005Z,25.87
2022-08-18T14:51:33.388Z,25.88
2022-08-18T14:54:03.213Z,25.88
2022-08-18T14:56:33.745Z,25.80
2022-08-18T14:59:16.188Z,25.82
2022-08-18T15:01:47.930Z,25.85
2022-08-18T15:04:23.142Z,25.91
2022-08-18T15:06:56.841Z,25.90
2022-08-18T15:09:32.178Z,25.93
2022-08-18T15:11:59.796Z,25.89
2022-08-18T15:14:36.360Z,25.91
2022-08-18T15:17:13.160Z,25.89
2022-08-18T15:19:59.888Z,25.88
2022-08-18T15:22:46.368Z,25.88
2022-08-18T15:25:56.585Z,25.85
2022-08-18T15:28:27.062Z,25.79
2022-08-18T15:33:41.966Z,25.83
2022-08-18T15:36:10.059Z,25.80
2022-08-18T15:38:37.064Z,25.75
2022-08-18T15:41:06.150Z,25.76
2022-08-18T15:43:45.857Z,25.76
2022-08-18T15:46:14.060Z,25.79
2022-08-18T15:48:43.745Z,25.78
2022-08-18T15:51:12.530Z,25.76
2022-08-18T15:53:44.621Z,25.78
2022-08-18T15:56:31.570Z,25.84
2022-08-18T15:59:00.579Z,25.80
2022-08-18T16:01:32.402Z,25.78
2022-08-18T16:04:01.583Z,25.80
2022-08-18T16:06:54.231Z,25.79
2022-08-18T16:09:25.177Z,25.76
2022-08-18T16:11:51.588Z,25.75
2022-08-18T16:14:17.971Z,25.74
2022-08-18T16:16:44.512Z,25.66
2022-08-18T16:19:13.683Z,25.63
2022-08-18T16:21:40.411Z,25.64
2022-08-18T16:24:08.249Z,25.59
2022-08-18T16:26:34.883Z,25.61
2022-08-18T16:29:02.011Z,25.55
2022-08-18T16:31:30.840Z,25.47
2022-08-18T16:34:02.321Z,25.48
2022-08-18T16:36:28.689Z,25.45
2022-08-18T16:39:04.253Z,25.43
2022-08-18T16:41:32.935Z,25.44
2022-08-18T16:43:59.513Z,25.38
2022-08-18T16:46:28.017Z,25.40
2022-08-18T16:48:57.426Z,25.37
2022-08-18T16:51:31.794Z,25.37
2022-08-18T16:53:59.451Z,25.37
2022-08-18T16:56:31.486Z,25.37
2022-08-18T16:59:23.370Z,25.35
2022-08-18T17:02:08.649Z,25.29
2022-08-18T17:04:41.270Z,25.31
2022-08-18T17:07:10.242Z,25.30
2022-08-18T17:09:43.299Z,25.25
2022-08-18T17:12:10.145Z,25.26
2022-08-18T17:14:43.288Z,25.22
2022-08-18T17:17:09.809Z,25.18
2022-08-18T17:19:44.303Z,25.15
2022-08-18T17:22:10.880Z,25.19
2022-08-18T17:24:37.913Z,25.15
2022-08-18T17:27:26.246Z,25.09
2022-08-18T17:29:55.435Z,25.10
2022-08-18T17:32:32.364Z,25.04
2022-08-18T17:35:03.900Z,25.05
2022-08-18T17:37:39.313Z,25.07
2022-08-18T17:40:20.982Z,25.05
2022-08-18T17:42:56.314Z,25.05
2022-08-18T17:45:23.392Z,25.02
2022-08-18T17:48:19.425Z,24.99
2022-08-18T17:51:23.068Z,24.98
2022-08-18T17:53:50.801Z,24.94
2022-08-18T17:56:21.984Z,24.88
2022-08-18T17:58:58.051Z,24.89
2022-08-18T18:01:30.007Z,24.86
2022-08-18T18:03:57.272Z,24.80
2022-08-18T18:06:43.510Z,24.78
2022-08-18T18:09:21.665Z,24.75
2022-08-18T18:11:48.224Z,24.74
2022-08-18T18:14:28.270Z,24.61
2022-08-18T18:17:07.132Z,24.57
2022-08-18T18:19:34.975Z,24.59
2022-08-18T18:22:12.809Z,24.57
2022-08-18T18:24:47.550Z,24.46
2022-08-18T18:27:29.244Z,24.48
2022-08-18T18:30:05.888Z,24.39
2022-08-18T18:32:59.097Z,24.39
2022-08-18T18:35:54.702Z,24.41
2022-08-18T18:38:26.214Z,24.45
2022-08-18T18:41:02.656Z,24.48
2022-08-18T18:43:42.813Z,24.43
2022-08-18T18:46:18.839Z,24.44
2022-08-18T18:48:54.893Z,24.44
2022-08-18T18:52:00.756Z,24.40
2022-08-18T18:54:53.607Z,24.40
2022-08-18T18:57:32.903Z,24.39
2022-08-18T19:00:20.317Z,24.37
2022-08-18T19:03:07.931Z,24.36
2022-08-18T19:06:08.411Z,24.33
2022-08-18T19:08:53.953Z,24.31
2022-08-18T19:11:38.956Z,24.26
2022-08-18T19:14:13.936Z,24.24
2022-08-18T19:16:47.430Z,24.21
2022-08-18T19:19:39.244Z,24.17
2022-08-18T19:22:25.387Z,24.15
2022-08-18T19:25:13.226Z,24.15
2022-08-18T19:27:56.195Z,24.11
2022-08-18T19:30:23.552Z,24.14
2022-08-18T19:33:00.306Z,24.08
2022-08-18T19:35:54.447Z,23.99
2022-08-18T19:38:33.960Z,23.96
2022-08-18T19:41:05.411Z,23.99
2022-08-18T19:43:37.805Z,23.96
2022-08-18T19:46:34.626Z,23.95
2022-08-18T19:49:17.002Z,23.92
2022-08-18T19:51:45.991Z,23.93
2022-08-18T19:54:46.028Z,23.85
2022-08-18T19:57:31.097Z,23.83
2022-08-18T20:00:14.170Z,23.80
2022-08-18T20:02:44.186Z,23.78
2022-08-18T20:05:21.714Z,23.78
2022-08-18T20:08:14.002Z,23.75
2022-08-18T20:11:08.454Z,23.70
2022-08-18T20:13:43.232Z,23.63
2022-08-18T20:16:44.075Z,23.62
2022-08-18T20:19:42.441Z,23.61
2022-08-18T20:22:33.447Z,23.59
2022-08-18T20:25:21.848Z,23.52
2022-08-18T20:28:01.500Z,23.59
2022-08-18T20:30:54.245Z,23.43
2022-08-18T20:33:25.727Z,23.41
2022-08-18T20:36:19.821Z,23.40
2022-08-18T20:38:53.131Z,23.34
2022-08-18T20:41:29.474Z,23.36
2022-08-18T20:44:34.437Z,23.34
2022-08-18T20:47:40.060Z,23.29
2022-08-18T20:50:31.365Z,23.19
2022-08-18T20:53:09.019Z,23.24
2022-08-18T20:55:49.247Z,23.18
2022-08-18T20:58:23.504Z,23.10
2022-08-18T21:00:54.311Z,23.08
2022-08-18T21:03:21.321Z,23.13
2022-08-18T21:05:56.804Z,23.09
2022-08-18T21:08:33.000Z,23.10
2022-08-18T21:11:11.486Z,23.10
2022-08-18T21:13:40.893Z,23.07
2022-08-18T21:16:25.959Z,22.99
2022-08-18T21:19:13.767Z,23.01
2022-08-18T21:21:49.212Z,23.02
2022-08-18T21:24:26.740Z,22.97
2022-08-18T21:27:04.579Z,22.92
2022-08-18T21:29:47.076Z,22.89
2022-08-18T21:32:32.498Z,22.87
2022-08-18T21:35:07.909Z,22.83
2022-08-18T21:37:41.219Z,22.89
2022-08-18T21:40:10.718Z,22.87
2022-08-18T21:42:44.637Z,22.80
2022-08-18T21:45:18.493Z,22.80
2022-08-18T21:48:12.500Z,22.76
2022-08-18T21:50:51.361Z,22.74
2022-08-18T21:53:25.765Z,22.72
2022-08-18T21:55:58.768Z,22.67
2022-08-18T21:58:32.584Z,22.61
2022-08-18T22:01:23.539Z,22.61
2022-08-18T22:03:58.534Z,22.59
2022-08-18T22:06:46.623Z,22.55
2022-08-18T22:09:54.683Z,22.50
2022-08-18T22:12:42.503Z,22.41
2022-08-18T22:15:26.569Z,22.40
2022-08-18T22:18:02.446Z,22.40
2022-08-18T22:20:47.520Z,22.33
2022-08-18T22:23:32.511Z,22.28
2022-08-18T22:26:37.524Z,22.23
2022-08-18T22:29:09.941Z,22.17
2022-08-18T22:31:49.544Z,22.14
2022-08-18T22:34:30.374Z,22.09
2022-08-18T22:37:07.540Z,22.10
2022-08-18T22:39:39.991Z,22.02
2022-08-18T22:42:07.982Z,21.92
2022-08-18T22:44:34.385Z,21.92
2022-08-18T22:47:03.221Z,21.83
2022-08-18T22:49:30.405Z,21.81
2022-08-18T22:51:57.766Z,21.79
2022-08-18T22:54:24.321Z,21.79
2022-08-18T22:56:55.160Z,21.74
2022-08-18T22:59:25.520Z,21.70
2022-08-18T23:01:53.947Z,21.65
2022-08-18T23:04:22.955Z,21.61
2022-08-18T23:06:52.447Z,21.54
2022-08-18T23:09:30.652Z,21.51
2022-08-18T23:12:00.570Z,21.45
2022-08-18T23:14:32.900Z,21.45
2022-08-18T23:17:01.538Z,21.40
2022-08-18T23:19:40.786Z,21.37
2022-08-18T23:22:11.047Z,21.35
2022-08-18T23:24:38.280Z,21.35
2022-08-18T23:27:06.292Z,21.33
2022-08-18T23:29:36.528Z,21.32
2022-08-18T23:32:07.636Z,21.31
2022-08-18T23:34:37.416Z,21.32
2022-08-18T23:37:04.871Z,21.31
2022-08-18T23:39:33.542Z,21.31
2022-08-18T23:42:06.691Z,21.35
2022-08-18T23:44:33.748Z,21.35
2022-08-18T23:47:06.611Z,21.35
2022-08-18T23:49:33.829Z,21.40
2022-08-18T23:52:04.071Z,21.41
2022-08-18T23:54:33.586Z,21.39
2022-08-18T23:57:02.671Z,21.39
2022-08-18T23:59:33.932Z,21.43
